sensor_id;sensor_type;location;lat;lon;timestamp;P1;durP1;ratioP1;P2;durP2;ratioP2
54679;SDS011;40578;53.178;5.846;2023-02-22T00:00:52;108.47;;;33.65;;
54679;SDS011;40578;53.178;5.846;2023-02-22T00:03:21;101.72;;;33.17;;
54679;SDS011;40578;53.178;5.846;2023-02-22T00:05:49;104.50;;;35.60;;
54679;SDS011;40578;53.178;5.846;2023-02-22T00:08:21;110.85;;;33.90;;
54679;SDS011;40578;53.178;5.846;2023-02-22T00:10:48;109.75;;;34.72;;
54679;SDS011;40578;53.178;5.846;2023-02-22T00:15:42;103.78;;;30.75;;
54679;SDS011;40578;53.178;5.846;2023-02-22T00:18:09;96.22;;;31.13;;
54679;SDS011;40578;53.178;5.846;2023-02-22T00:20:37;96.32;;;30.27;;
54679;SDS011;40578;53.178;5.846;2023-02-22T00:23:07;103.05;;;32.75;;
54679;SDS011;40578;53.178;5.846;2023-02-22T00:25:39;89.80;;;29.42;;
54679;SDS011;40578;53.178;5.846;2023-02-22T00:28:04;92.37;;;29.77;;
54679;SDS011;40578;53.178;5.846;2023-02-22T00:30:31;105.93;;;31.73;;
54679;SDS011;40578;53.178;5.846;2023-02-22T00:32:58;93.20;;;30.33;;
54679;SDS011;40578;53.178;5.846;2023-02-22T00:35:25;81.97;;;28.65;;
54679;SDS011;40578;53.178;5.846;2023-02-22T00:37:53;85.60;;;29.13;;
54679;SDS011;40578;53.178;5.846;2023-02-22T00:40:23;87.80;;;28.92;;
54679;SDS011;40578;53.178;5.846;2023-02-22T00:42:51;89.28;;;28.98;;
54679;SDS011;40578;53.178;5.846;2023-02-22T00:45:18;87.95;;;28.73;;
54679;SDS011;40578;53.178;5.846;2023-02-22T00:47:46;86.88;;;27.77;;
54679;SDS011;40578;53.178;5.846;2023-02-22T00:50:12;80.20;;;26.92;;
54679;SDS011;40578;53.178;5.846;2023-02-22T00:52:38;97.68;;;28.70;;
54679;SDS011;40578;53.178;5.846;2023-02-22T00:55:05;80.63;;;27.53;;
54679;SDS011;40578;53.178;5.846;2023-02-22T00:57:33;87.53;;;27.27;;
54679;SDS011;40578;53.178;5.846;2023-02-22T00:59:59;90.00;;;28.10;;
54679;SDS011;40578;53.178;5.846;2023-02-22T01:02:36;80.53;;;27.83;;
54679;SDS011;40578;53.178;5.846;2023-02-22T01:05:06;79.72;;;26.50;;
54679;SDS011;40578;53.178;5.846;2023-02-22T01:07:33;84.00;;;26.77;;
54679;SDS011;40578;53.178;5.846;2023-02-22T01:09:59;78.33;;;26.50;;
54679;SDS011;40578;53.178;5.846;2023-02-22T01:12:25;72.50;;;25.15;;
54679;SDS011;40578;53.178;5.846;2023-02-22T01:14:51;98.60;;;26.75;;
54679;SDS011;40578;53.178;5.846;2023-02-22T01:17:21;93.47;;;27.48;;
54679;SDS011;40578;53.178;5.846;2023-02-22T01:19:47;88.28;;;28.42;;
54679;SDS011;40578;53.178;5.846;2023-02-22T01:22:12;73.37;;;26.67;;
54679;SDS011;40578;53.178;5.846;2023-02-22T01:24:38;86.20;;;27.87;;
54679;SDS011;40578;53.178;5.846;2023-02-22T01:27:04;74.53;;;26.43;;
54679;SDS011;40578;53.178;5.846;2023-02-22T01:29:29;82.80;;;26.93;;
54679;SDS011;40578;53.178;5.846;2023-02-22T01:31:55;90.70;;;27.20;;
54679;SDS011;40578;53.178;5.846;2023-02-22T01:34:22;87.70;;;26.55;;
54679;SDS011;40578;53.178;5.846;2023-02-22T01:36:48;87.35;;;27.80;;
54679;SDS011;40578;53.178;5.846;2023-02-22T01:39:14;80.97;;;26.73;;
54679;SDS011;40578;53.178;5.846;2023-02-22T01:41:42;80.68;;;26.63;;
54679;SDS011;40578;53.178;5.846;2023-02-22T01:44:25;87.07;;;27.08;;
54679;SDS011;40578;53.178;5.846;2023-02-22T01:46:55;79.93;;;25.73;;
54679;SDS011;40578;53.178;5.846;2023-02-22T01:49:23;73.10;;;24.58;;
54679;SDS011;40578;53.178;5.846;2023-02-22T01:51:51;64.90;;;23.17;;
54679;SDS011;40578;53.178;5.846;2023-02-22T01:54:22;64.72;;;23.20;;
54679;SDS011;40578;53.178;5.846;2023-02-22T02:04:20;60.58;;;21.98;;
54679;SDS011;40578;53.178;5.846;2023-02-22T02:06:50;62.63;;;21.70;;
54679;SDS011;40578;53.178;5.846;2023-02-22T02:11:48;60.80;;;20.45;;
54679;SDS011;40578;53.178;5.846;2023-02-22T02:14:15;64.65;;;21.38;;
54679;SDS011;40578;53.178;5.846;2023-02-22T02:16:41;53.70;;;20.57;;
54679;SDS011;40578;53.178;5.846;2023-02-22T02:19:19;54.70;;;20.25;;
54679;SDS011;40578;53.178;5.846;2023-02-22T02:33:03;58.72;;;21.38;;
54679;SDS011;40578;53.178;5.846;2023-02-22T02:41:07;53.72;;;20.40;;
54679;SDS011;40578;53.178;5.846;2023-02-22T02:46:28;51.78;;;20.08;;
54679;SDS011;40578;53.178;5.846;2023-02-22T02:49:03;51.42;;;19.90;;
54679;SDS011;40578;53.178;5.846;2023-02-22T02:51:35;57.47;;;20.42;;
54679;SDS011;40578;53.178;5.846;2023-02-22T02:54:04;67.25;;;21.20;;
54679;SDS011;40578;53.178;5.846;2023-02-22T02:56:32;52.63;;;18.80;;
54679;SDS011;40578;53.178;5.846;2023-02-22T02:58:58;58.15;;;20.48;;
54679;SDS011;40578;53.178;5.846;2023-02-22T03:06:52;56.72;;;20.25;;
54679;SDS011;40578;53.178;5.846;2023-02-22T03:12:37;58.47;;;19.58;;
54679;SDS011;40578;53.178;5.846;2023-02-22T03:24:18;57.00;;;19.55;;
54679;SDS011;40578;53.178;5.846;2023-02-22T03:26:56;62.88;;;20.77;;
54679;SDS011;40578;53.178;5.846;2023-02-22T03:29:33;62.03;;;19.98;;
54679;SDS011;40578;53.178;5.846;2023-02-22T03:32:09;50.65;;;18.98;;
54679;SDS011;40578;53.178;5.846;2023-02-22T03:34:41;46.43;;;19.07;;
54679;SDS011;40578;53.178;5.846;2023-02-22T03:37:18;65.75;;;20.27;;
54679;SDS011;40578;53.178;5.846;2023-02-22T03:39:48;50.22;;;19.85;;
54679;SDS011;40578;53.178;5.846;2023-02-22T03:42:21;56.78;;;19.88;;
54679;SDS011;40578;53.178;5.846;2023-02-22T03:44:51;54.45;;;19.42;;
54679;SDS011;40578;53.178;5.846;2023-02-22T03:47:23;54.13;;;19.00;;
54679;SDS011;40578;53.178;5.846;2023-02-22T03:49:57;58.80;;;19.90;;
54679;SDS011;40578;53.178;5.846;2023-02-22T03:52:31;62.22;;;20.45;;
54679;SDS011;40578;53.178;5.846;2023-02-22T03:54:59;59.03;;;19.85;;
54679;SDS011;40578;53.178;5.846;2023-02-22T03:57:32;57.92;;;20.30;;
54679;SDS011;40578;53.178;5.846;2023-02-22T04:00:02;57.50;;;20.08;;
54679;SDS011;40578;53.178;5.846;2023-02-22T04:02:31;61.08;;;20.00;;
54679;SDS011;40578;53.178;5.846;2023-02-22T04:04:56;56.60;;;20.33;;
54679;SDS011;40578;53.178;5.846;2023-02-22T04:07:22;56.93;;;19.63;;
54679;SDS011;40578;53.178;5.846;2023-02-22T04:09:48;49.40;;;19.03;;
54679;SDS011;40578;53.178;5.846;2023-02-22T04:12:14;64.33;;;21.23;;
54679;SDS011;40578;53.178;5.846;2023-02-22T04:14:39;63.90;;;21.30;;
54679;SDS011;40578;53.178;5.846;2023-02-22T04:17:05;60.57;;;20.03;;
54679;SDS011;40578;53.178;5.846;2023-02-22T04:19:30;66.17;;;21.93;;
54679;SDS011;40578;53.178;5.846;2023-02-22T04:21:56;66.73;;;22.20;;
54679;SDS011;40578;53.178;5.846;2023-02-22T04:24:22;68.63;;;21.67;;
54679;SDS011;40578;53.178;5.846;2023-02-22T04:26:47;72.13;;;21.80;;
54679;SDS011;40578;53.178;5.846;2023-02-22T04:29:13;72.75;;;22.40;;
54679;SDS011;40578;53.178;5.846;2023-02-22T04:31:39;65.90;;;21.20;;
54679;SDS011;40578;53.178;5.846;2023-02-22T04:34:05;61.13;;;20.27;;
54679;SDS011;40578;53.178;5.846;2023-02-22T04:36:31;70.40;;;21.90;;
54679;SDS011;40578;53.178;5.846;2023-02-22T04:38:57;65.70;;;21.47;;
54679;SDS011;40578;53.178;5.846;2023-02-22T04:41:23;65.50;;;20.42;;
54679;SDS011;40578;53.178;5.846;2023-02-22T04:43:48;62.37;;;21.50;;
54679;SDS011;40578;53.178;5.846;2023-02-22T04:46:14;66.67;;;21.80;;
54679;SDS011;40578;53.178;5.846;2023-02-22T04:48:40;67.85;;;21.77;;
54679;SDS011;40578;53.178;5.846;2023-02-22T04:51:06;62.35;;;21.55;;
54679;SDS011;40578;53.178;5.846;2023-02-22T04:53:32;56.87;;;20.87;;
54679;SDS011;40578;53.178;5.846;2023-02-22T04:55:58;54.00;;;20.77;;
54679;SDS011;40578;53.178;5.846;2023-02-22T04:58:24;50.30;;;20.53;;
54679;SDS011;40578;53.178;5.846;2023-02-22T05:00:50;51.40;;;19.30;;
54679;SDS011;40578;53.178;5.846;2023-02-22T05:03:15;49.27;;;19.30;;
54679;SDS011;40578;53.178;5.846;2023-02-22T05:05:41;45.00;;;18.77;;
54679;SDS011;40578;53.178;5.846;2023-02-22T05:08:07;36.22;;;17.02;;
54679;SDS011;40578;53.178;5.846;2023-02-22T05:10:33;37.30;;;17.53;;
54679;SDS011;40578;53.178;5.846;2023-02-22T05:12:58;37.07;;;16.77;;
54679;SDS011;40578;53.178;5.846;2023-02-22T05:15:24;37.17;;;16.80;;
54679;SDS011;40578;53.178;5.846;2023-02-22T05:17:50;38.30;;;17.50;;
54679;SDS011;40578;53.178;5.846;2023-02-22T05:20:25;39.28;;;17.23;;
54679;SDS011;40578;53.178;5.846;2023-02-22T05:22:54;38.55;;;17.17;;
54679;SDS011;40578;53.178;5.846;2023-02-22T05:25:21;33.60;;;15.75;;
54679;SDS011;40578;53.178;5.846;2023-02-22T05:27:50;38.23;;;17.27;;
54679;SDS011;40578;53.178;5.846;2023-02-22T05:30:17;38.67;;;16.45;;
54679;SDS011;40578;53.178;5.846;2023-02-22T05:32:44;36.95;;;16.40;;
54679;SDS011;40578;53.178;5.846;2023-02-22T05:35:10;36.70;;;17.47;;
54679;SDS011;40578;53.178;5.846;2023-02-22T05:37:36;34.57;;;17.30;;
54679;SDS011;40578;53.178;5.846;2023-02-22T05:40:01;32.30;;;15.73;;
54679;SDS011;40578;53.178;5.846;2023-02-22T05:42:28;32.63;;;16.55;;
54679;SDS011;40578;53.178;5.846;2023-02-22T05:44:54;34.40;;;16.53;;
54679;SDS011;40578;53.178;5.846;2023-02-22T05:47:19;38.90;;;17.53;;
54679;SDS011;40578;53.178;5.846;2023-02-22T05:49:45;41.73;;;17.97;;
54679;SDS011;40578;53.178;5.846;2023-02-22T05:52:10;33.37;;;16.67;;
54679;SDS011;40578;53.178;5.846;2023-02-22T05:54:36;36.07;;;17.30;;
54679;SDS011;40578;53.178;5.846;2023-02-22T05:57:02;37.50;;;17.80;;
54679;SDS011;40578;53.178;5.846;2023-02-22T05:59:27;35.83;;;18.13;;
54679;SDS011;40578;53.178;5.846;2023-02-22T06:01:54;36.65;;;17.45;;
54679;SDS011;40578;53.178;5.846;2023-02-22T06:04:19;35.63;;;17.37;;
54679;SDS011;40578;53.178;5.846;2023-02-22T06:06:45;34.10;;;18.07;;
54679;SDS011;40578;53.178;5.846;2023-02-22T06:09:10;36.20;;;18.20;;
54679;SDS011;40578;53.178;5.846;2023-02-22T06:11:36;37.97;;;17.37;;
54679;SDS011;40578;53.178;5.846;2023-02-22T06:14:02;38.97;;;18.07;;
54679;SDS011;40578;53.178;5.846;2023-02-22T06:16:27;39.50;;;18.93;;
54679;SDS011;40578;53.178;5.846;2023-02-22T06:18:53;40.13;;;19.63;;
54679;SDS011;40578;53.178;5.846;2023-02-22T06:21:18;39.37;;;19.77;;
54679;SDS011;40578;53.178;5.846;2023-02-22T06:23:44;42.33;;;20.27;;
54679;SDS011;40578;53.178;5.846;2023-02-22T06:26:10;41.37;;;20.60;;
54679;SDS011;40578;53.178;5.846;2023-02-22T06:28:35;45.13;;;21.97;;
54679;SDS011;40578;53.178;5.846;2023-02-22T06:31:01;43.27;;;21.23;;
54679;SDS011;40578;53.178;5.846;2023-02-22T06:33:26;43.07;;;21.53;;
54679;SDS011;40578;53.178;5.846;2023-02-22T06:35:52;44.03;;;21.63;;
54679;SDS011;40578;53.178;5.846;2023-02-22T06:38:22;42.17;;;21.90;;
54679;SDS011;40578;53.178;5.846;2023-02-22T06:40:48;44.15;;;22.40;;
54679;SDS011;40578;53.178;5.846;2023-02-22T06:43:14;47.47;;;23.57;;
54679;SDS011;40578;53.178;5.846;2023-02-22T06:45:40;48.40;;;23.27;;
54679;SDS011;40578;53.178;5.846;2023-02-22T06:48:05;51.90;;;26.53;;
54679;SDS011;40578;53.178;5.846;2023-02-22T06:50:31;53.30;;;26.53;;
54679;SDS011;40578;53.178;5.846;2023-02-22T06:52:57;52.42;;;26.42;;
54679;SDS011;40578;53.178;5.846;2023-02-22T06:55:24;52.87;;;26.40;;
54679;SDS011;40578;53.178;5.846;2023-02-22T06:57:54;56.20;;;26.92;;
54679;SDS011;40578;53.178;5.846;2023-02-22T07:00:21;54.95;;;26.52;;
54679;SDS011;40578;53.178;5.846;2023-02-22T07:02:49;57.47;;;28.23;;
54679;SDS011;40578;53.178;5.846;2023-02-22T07:05:15;56.47;;;27.37;;
54679;SDS011;40578;53.178;5.846;2023-02-22T07:07:43;57.15;;;28.10;;
54679;SDS011;40578;53.178;5.846;2023-02-22T07:10:16;59.42;;;27.35;;
54679;SDS011;40578;53.178;5.846;2023-02-22T07:12:50;63.10;;;29.58;;
54679;SDS011;40578;53.178;5.846;2023-02-22T07:15:20;61.47;;;28.58;;
54679;SDS011;40578;53.178;5.846;2023-02-22T07:17:47;60.38;;;28.10;;
54679;SDS011;40578;53.178;5.846;2023-02-22T07:20:15;66.85;;;31.15;;
54679;SDS011;40578;53.178;5.846;2023-02-22T07:25:07;69.85;;;31.08;;
54679;SDS011;40578;53.178;5.846;2023-02-22T07:27:35;69.57;;;32.28;;
54679;SDS011;40578;53.178;5.846;2023-02-22T07:30:03;65.85;;;30.88;;
54679;SDS011;40578;53.178;5.846;2023-02-22T07:32:33;73.03;;;33.40;;
54679;SDS011;40578;53.178;5.846;2023-02-22T07:34:58;73.80;;;31.60;;
54679;SDS011;40578;53.178;5.846;2023-02-22T07:37:26;80.13;;;35.40;;
54679;SDS011;40578;53.178;5.846;2023-02-22T07:39:52;78.83;;;34.93;;
54679;SDS011;40578;53.178;5.846;2023-02-22T07:42:18;77.57;;;34.63;;
54679;SDS011;40578;53.178;5.846;2023-02-22T07:44:43;84.30;;;35.87;;
54679;SDS011;40578;53.178;5.846;2023-02-22T07:47:09;87.23;;;35.93;;
54679;SDS011;40578;53.178;5.846;2023-02-22T07:49:36;96.65;;;39.90;;
54679;SDS011;40578;53.178;5.846;2023-02-22T07:52:02;93.13;;;38.10;;
54679;SDS011;40578;53.178;5.846;2023-02-22T07:54:28;89.80;;;38.33;;
54679;SDS011;40578;53.178;5.846;2023-02-22T07:56:53;101.70;;;41.23;;
54679;SDS011;40578;53.178;5.846;2023-02-22T07:59:19;103.90;;;40.80;;
54679;SDS011;40578;53.178;5.846;2023-02-22T08:01:47;106.13;;;40.63;;
54679;SDS011;40578;53.178;5.846;2023-02-22T08:04:14;111.75;;;43.40;;
54679;SDS011;40578;53.178;5.846;2023-02-22T08:06:40;111.50;;;42.43;;
54679;SDS011;40578;53.178;5.846;2023-02-22T08:09:05;110.07;;;43.23;;
54679;SDS011;40578;53.178;5.846;2023-02-22T08:11:31;112.17;;;43.90;;
54679;SDS011;40578;53.178;5.846;2023-02-22T08:13:57;111.40;;;42.78;;
54679;SDS011;40578;53.178;5.846;2023-02-22T08:16:23;121.03;;;45.23;;
54679;SDS011;40578;53.178;5.846;2023-02-22T08:18:48;120.00;;;45.37;;
54679;SDS011;40578;53.178;5.846;2023-02-22T08:21:14;116.57;;;46.20;;
54679;SDS011;40578;53.178;5.846;2023-02-22T08:23:40;128.57;;;47.90;;
54679;SDS011;40578;53.178;5.846;2023-02-22T08:26:06;116.10;;;45.20;;
54679;SDS011;40578;53.178;5.846;2023-02-22T08:28:34;119.68;;;47.33;;
54679;SDS011;40578;53.178;5.846;2023-02-22T08:31:00;128.13;;;48.10;;
54679;SDS011;40578;53.178;5.846;2023-02-22T08:33:26;132.07;;;50.30;;
54679;SDS011;40578;53.178;5.846;2023-02-22T08:35:51;128.83;;;48.27;;
54679;SDS011;40578;53.178;5.846;2023-02-22T08:38:19;126.53;;;48.37;;
54679;SDS011;40578;53.178;5.846;2023-02-22T08:40:47;129.65;;;48.17;;
54679;SDS011;40578;53.178;5.846;2023-02-22T08:45:39;135.63;;;48.88;;
54679;SDS011;40578;53.178;5.846;2023-02-22T08:48:06;131.00;;;48.60;;
54679;SDS011;40578;53.178;5.846;2023-02-22T08:50:31;140.00;;;49.80;;
54679;SDS011;40578;53.178;5.846;2023-02-22T08:52:58;130.43;;;49.50;;
54679;SDS011;40578;53.178;5.846;2023-02-22T08:55:26;124.18;;;47.92;;
54679;SDS011;40578;53.178;5.846;2023-02-22T08:57:57;128.38;;;48.92;;
54679;SDS011;40578;53.178;5.846;2023-02-22T09:00:25;138.35;;;50.50;;
54679;SDS011;40578;53.178;5.846;2023-02-22T09:02:51;137.63;;;50.93;;
54679;SDS011;40578;53.178;5.846;2023-02-22T09:05:17;139.38;;;50.88;;
54679;SDS011;40578;53.178;5.846;2023-02-22T09:07:43;137.43;;;49.63;;
54679;SDS011;40578;53.178;5.846;2023-02-22T09:10:13;138.45;;;49.95;;
54679;SDS011;40578;53.178;5.846;2023-02-22T09:12:40;135.15;;;49.40;;
54679;SDS011;40578;53.178;5.846;2023-02-22T09:15:06;136.95;;;50.08;;
54679;SDS011;40578;53.178;5.846;2023-02-22T09:17:33;134.45;;;50.65;;
54679;SDS011;40578;53.178;5.846;2023-02-22T09:20:01;135.88;;;48.55;;
54679;SDS011;40578;53.178;5.846;2023-02-22T09:22:31;137.93;;;50.15;;
54679;SDS011;40578;53.178;5.846;2023-02-22T09:24:57;133.90;;;50.03;;
54679;SDS011;40578;53.178;5.846;2023-02-22T09:27:23;140.50;;;50.88;;
54679;SDS011;40578;53.178;5.846;2023-02-22T09:29:52;137.15;;;48.42;;
54679;SDS011;40578;53.178;5.846;2023-02-22T09:32:18;141.90;;;52.03;;
54679;SDS011;40578;53.178;5.846;2023-02-22T09:34:44;128.07;;;49.40;;
54679;SDS011;40578;53.178;5.846;2023-02-22T09:37:11;131.68;;;48.63;;
54679;SDS011;40578;53.178;5.846;2023-02-22T09:45:05;137.00;;;52.42;;
54679;SDS011;40578;53.178;5.846;2023-02-22T09:47:54;139.02;;;52.85;;
54679;SDS011;40578;53.178;5.846;2023-02-22T09:50:24;137.20;;;49.25;;
54679;SDS011;40578;53.178;5.846;2023-02-22T09:53:01;139.80;;;49.30;;
54679;SDS011;40578;53.178;5.846;2023-02-22T09:55:47;139.88;;;51.10;;
54679;SDS011;40578;53.178;5.846;2023-02-22T09:58:26;138.25;;;50.00;;
54679;SDS011;40578;53.178;5.846;2023-02-22T10:06:35;126.47;;;48.35;;
54679;SDS011;40578;53.178;5.846;2023-02-22T10:09:03;130.77;;;49.13;;
54679;SDS011;40578;53.178;5.846;2023-02-22T10:14:26;125.68;;;49.15;;
54679;SDS011;40578;53.178;5.846;2023-02-22T10:16:56;124.82;;;46.30;;
54679;SDS011;40578;53.178;5.846;2023-02-22T10:25:13;112.90;;;44.45;;
54679;SDS011;40578;53.178;5.846;2023-02-22T10:33:06;121.18;;;45.15;;
54679;SDS011;40578;53.178;5.846;2023-02-22T10:35:34;120.20;;;45.47;;
54679;SDS011;40578;53.178;5.846;2023-02-22T10:38:46;121.13;;;46.17;;
54679;SDS011;40578;53.178;5.846;2023-02-22T10:40:56;123.22;;;46.20;;
54679;SDS011;40578;53.178;5.846;2023-02-22T10:43:27;109.38;;;43.80;;
54679;SDS011;40578;53.178;5.846;2023-02-22T10:45:54;112.65;;;44.42;;
54679;SDS011;40578;53.178;5.846;2023-02-22T10:48:24;115.22;;;45.17;;
54679;SDS011;40578;53.178;5.846;2023-02-22T10:50:53;109.82;;;43.60;;
54679;SDS011;40578;53.178;5.846;2023-02-22T10:53:25;107.50;;;43.85;;
54679;SDS011;40578;53.178;5.846;2023-02-22T11:01:20;111.47;;;45.83;;
54679;SDS011;40578;53.178;5.846;2023-02-22T11:03:54;108.40;;;44.13;;
54679;SDS011;40578;53.178;5.846;2023-02-22T11:06:38;115.63;;;44.47;;
54679;SDS011;40578;53.178;5.846;2023-02-22T11:11:42;107.13;;;44.78;;
54679;SDS011;40578;53.178;5.846;2023-02-22T11:14:25;107.85;;;41.55;;
54679;SDS011;40578;53.178;5.846;2023-02-22T11:16:55;107.38;;;43.35;;
54679;SDS011;40578;53.178;5.846;2023-02-22T11:19:26;110.35;;;44.33;;
54679;SDS011;40578;53.178;5.846;2023-02-22T11:22:40;110.15;;;46.30;;
54679;SDS011;40578;53.178;5.846;2023-02-22T11:24:46;109.10;;;44.28;;
54679;SDS011;40578;53.178;5.846;2023-02-22T11:27:23;110.18;;;44.42;;
54679;SDS011;40578;53.178;5.846;2023-02-22T11:29:53;103.40;;;42.97;;
54679;SDS011;40578;53.178;5.846;2023-02-22T11:32:30;102.00;;;42.30;;
54679;SDS011;40578;53.178;5.846;2023-02-22T11:34:56;108.20;;;43.25;;
54679;SDS011;40578;53.178;5.846;2023-02-22T11:37:42;97.50;;;41.88;;
54679;SDS011;40578;53.178;5.846;2023-02-22T11:40:15;105.10;;;42.40;;
54679;SDS011;40578;53.178;5.846;2023-02-22T11:42:49;95.90;;;41.83;;
54679;SDS011;40578;53.178;5.846;2023-02-22T11:45:32;100.03;;;42.97;;
54679;SDS011;40578;53.178;5.846;2023-02-22T11:50:32;91.15;;;40.72;;
54679;SDS011;40578;53.178;5.846;2023-02-22T11:55:55;104.20;;;41.38;;
54679;SDS011;40578;53.178;5.846;2023-02-22T11:58:50;97.43;;;41.60;;
54679;SDS011;40578;53.178;5.846;2023-02-22T12:12:19;91.10;;;38.00;;
54679;SDS011;40578;53.178;5.846;2023-02-22T12:17:55;92.38;;;39.05;;
54679;SDS011;40578;53.178;5.846;2023-02-22T12:20:46;96.60;;;39.78;;
54679;SDS011;40578;53.178;5.846;2023-02-22T12:26:03;94.18;;;38.05;;
54679;SDS011;40578;53.178;5.846;2023-02-22T12:31:22;103.07;;;39.70;;
54679;SDS011;40578;53.178;5.846;2023-02-22T12:34:06;94.40;;;37.58;;
54679;SDS011;40578;53.178;5.846;2023-02-22T12:36:55;96.43;;;38.97;;
54679;SDS011;40578;53.178;5.846;2023-02-22T12:39:41;105.15;;;38.65;;
54679;SDS011;40578;53.178;5.846;2023-02-22T12:42:26;96.50;;;37.60;;
54679;SDS011;40578;53.178;5.846;2023-02-22T12:45:05;89.85;;;37.53;;
54679;SDS011;40578;53.178;5.846;2023-02-22T12:47:40;89.63;;;37.42;;
54679;SDS011;40578;53.178;5.846;2023-02-22T12:50:16;91.40;;;36.78;;
54679;SDS011;40578;53.178;5.846;2023-02-22T12:52:50;89.05;;;38.60;;
54679;SDS011;40578;53.178;5.846;2023-02-22T12:55:39;89.20;;;37.42;;
54679;SDS011;40578;53.178;5.846;2023-02-22T12:58:35;98.65;;;37.90;;
54679;SDS011;40578;53.178;5.846;2023-02-22T13:01:10;98.40;;;39.55;;
54679;SDS011;40578;53.178;5.846;2023-02-22T13:03:42;96.70;;;38.05;;
54679;SDS011;40578;53.178;5.846;2023-02-22T13:09:00;101.80;;;39.47;;
54679;SDS011;40578;53.178;5.846;2023-02-22T13:11:41;100.93;;;37.35;;
54679;SDS011;40578;53.178;5.846;2023-02-22T13:23:18;104.85;;;38.78;;
54679;SDS011;40578;53.178;5.846;2023-02-22T13:26:38;99.88;;;38.30;;
54679;SDS011;40578;53.178;5.846;2023-02-22T13:28:59;108.85;;;38.35;;
54679;SDS011;40578;53.178;5.846;2023-02-22T13:48:48;105.00;;;39.15;;
54679;SDS011;40578;53.178;5.846;2023-02-22T13:51:32;114.18;;;38.55;;
54679;SDS011;40578;53.178;5.846;2023-02-22T13:54:15;114.05;;;40.15;;
54679;SDS011;40578;53.178;5.846;2023-02-22T13:56:45;109.55;;;39.67;;
54679;SDS011;40578;53.178;5.846;2023-02-22T13:59:25;102.47;;;37.58;;
54679;SDS011;40578;53.178;5.846;2023-02-22T14:02:02;102.57;;;37.35;;
54679;SDS011;40578;53.178;5.846;2023-02-22T14:06:58;106.30;;;37.27;;
54679;SDS011;40578;53.178;5.846;2023-02-22T14:09:46;101.63;;;37.75;;
54679;SDS011;40578;53.178;5.846;2023-02-22T14:15:28;98.65;;;37.20;;
54679;SDS011;40578;53.178;5.846;2023-02-22T14:22:44;102.30;;;36.60;;
54679;SDS011;40578;53.178;5.846;2023-02-22T14:28:05;86.97;;;34.33;;
54679;SDS011;40578;53.178;5.846;2023-02-22T14:30:34;88.88;;;35.08;;
54679;SDS011;40578;53.178;5.846;2023-02-22T14:33:02;86.57;;;34.88;;
54679;SDS011;40578;53.178;5.846;2023-02-22T14:35:36;81.50;;;33.43;;
54679;SDS011;40578;53.178;5.846;2023-02-22T14:38:05;90.15;;;34.35;;
54679;SDS011;40578;53.178;5.846;2023-02-22T14:43:11;88.70;;;34.67;;
54679;SDS011;40578;53.178;5.846;2023-02-22T14:45:53;83.55;;;35.00;;
54679;SDS011;40578;53.178;5.846;2023-02-22T14:51:18;84.13;;;32.88;;
54679;SDS011;40578;53.178;5.846;2023-02-22T14:53:55;81.03;;;33.75;;
54679;SDS011;40578;53.178;5.846;2023-02-22T14:59:44;82.03;;;32.72;;
54679;SDS011;40578;53.178;5.846;2023-02-22T15:02:17;83.90;;;34.08;;
54679;SDS011;40578;53.178;5.846;2023-02-22T15:04:51;86.63;;;33.97;;
54679;SDS011;40578;53.178;5.846;2023-02-22T15:09:56;87.45;;;34.28;;
54679;SDS011;40578;53.178;5.846;2023-02-22T15:12:53;82.90;;;33.00;;
54679;SDS011;40578;53.178;5.846;2023-02-22T15:15:34;85.30;;;33.15;;
54679;SDS011;40578;53.178;5.846;2023-02-22T15:20:55;80.03;;;31.73;;
54679;SDS011;40578;53.178;5.846;2023-02-22T15:23:24;76.75;;;31.13;;
54679;SDS011;40578;53.178;5.846;2023-02-22T15:26:02;85.00;;;33.45;;
54679;SDS011;40578;53.178;5.846;2023-02-22T15:28:28;75.83;;;30.93;;
54679;SDS011;40578;53.178;5.846;2023-02-22T15:34:14;75.95;;;31.40;;
54679;SDS011;40578;53.178;5.846;2023-02-22T15:36:48;75.45;;;30.30;;
54679;SDS011;40578;53.178;5.846;2023-02-22T15:39:25;77.28;;;31.63;;
54679;SDS011;40578;53.178;5.846;2023-02-22T15:44:50;74.90;;;30.38;;
54679;SDS011;40578;53.178;5.846;2023-02-22T15:52:52;82.78;;;31.65;;
54679;SDS011;40578;53.178;5.846;2023-02-22T15:55:26;77.35;;;30.80;;
54679;SDS011;40578;53.178;5.846;2023-02-22T15:57:59;74.17;;;30.13;;
54679;SDS011;40578;53.178;5.846;2023-02-22T16:00:42;78.80;;;31.27;;
54679;SDS011;40578;53.178;5.846;2023-02-22T16:03:11;75.82;;;31.27;;
54679;SDS011;40578;53.178;5.846;2023-02-22T16:05:43;82.00;;;31.60;;
54679;SDS011;40578;53.178;5.846;2023-02-22T16:08:54;82.65;;;31.52;;
54679;SDS011;40578;53.178;5.846;2023-02-22T16:11:31;78.10;;;31.23;;
54679;SDS011;40578;53.178;5.846;2023-02-22T16:13:59;80.00;;;31.50;;
54679;SDS011;40578;53.178;5.846;2023-02-22T16:16:37;81.85;;;31.25;;
54679;SDS011;40578;53.178;5.846;2023-02-22T16:19:20;79.70;;;31.00;;
54679;SDS011;40578;53.178;5.846;2023-02-22T16:21:58;86.68;;;34.42;;
54679;SDS011;40578;53.178;5.846;2023-02-22T16:24:28;83.35;;;33.53;;
54679;SDS011;40578;53.178;5.846;2023-02-22T16:29:29;78.82;;;31.00;;
54679;SDS011;40578;53.178;5.846;2023-02-22T16:31:55;84.20;;;32.13;;
54679;SDS011;40578;53.178;5.846;2023-02-22T16:34:20;79.77;;;32.57;;
54679;SDS011;40578;53.178;5.846;2023-02-22T16:36:46;81.23;;;31.87;;
54679;SDS011;40578;53.178;5.846;2023-02-22T16:39:24;87.93;;;33.05;;
54679;SDS011;40578;53.178;5.846;2023-02-22T16:41:56;84.32;;;31.95;;
54679;SDS011;40578;53.178;5.846;2023-02-22T16:44:24;87.80;;;32.95;;
54679;SDS011;40578;53.178;5.846;2023-02-22T16:46:51;88.63;;;33.70;;
54679;SDS011;40578;53.178;5.846;2023-02-22T16:49:18;83.35;;;32.83;;
54679;SDS011;40578;53.178;5.846;2023-02-22T16:52:05;84.88;;;33.72;;
54679;SDS011;40578;53.178;5.846;2023-02-22T16:54:35;90.82;;;34.15;;
54679;SDS011;40578;53.178;5.846;2023-02-22T16:57:09;93.50;;;33.67;;
54679;SDS011;40578;53.178;5.846;2023-02-22T16:59:44;90.97;;;34.47;;
54679;SDS011;40578;53.178;5.846;2023-02-22T17:02:13;85.47;;;34.75;;
54679;SDS011;40578;53.178;5.846;2023-02-22T17:04:40;87.72;;;35.25;;
54679;SDS011;40578;53.178;5.846;2023-02-22T17:07:07;95.32;;;34.28;;
54679;SDS011;40578;53.178;5.846;2023-02-22T17:09:34;95.40;;;35.65;;
54679;SDS011;40578;53.178;5.846;2023-02-22T17:12:00;85.90;;;33.57;;
54679;SDS011;40578;53.178;5.846;2023-02-22T17:14:30;98.97;;;35.45;;
54679;SDS011;40578;53.178;5.846;2023-02-22T17:16:58;96.10;;;34.70;;
54679;SDS011;40578;53.178;5.846;2023-02-22T17:19:24;97.93;;;35.10;;
54679;SDS011;40578;53.178;5.846;2023-02-22T17:21:50;93.35;;;34.58;;
54679;SDS011;40578;53.178;5.846;2023-02-22T17:24:16;95.20;;;35.40;;
54679;SDS011;40578;53.178;5.846;2023-02-22T17:26:46;91.68;;;34.15;;
54679;SDS011;40578;53.178;5.846;2023-02-22T17:29:11;104.60;;;35.00;;
54679;SDS011;40578;53.178;5.846;2023-02-22T17:31:39;101.43;;;34.67;;
54679;SDS011;40578;53.178;5.846;2023-02-22T17:34:05;103.30;;;37.80;;
54679;SDS011;40578;53.178;5.846;2023-02-22T17:36:32;106.03;;;36.42;;
54679;SDS011;40578;53.178;5.846;2023-02-22T17:39:00;103.93;;;36.83;;